sensor_id;sensor_type;location;lat;lon;timestamp;pressure;altitude;pressure_sealevel;temperature;humidity
54920;BME280;63804;53.120;8.764;2023-01-30T00:01:38;101318.91;;;6.00;49.82
54920;BME280;63804;53.120;8.764;2023-01-30T00:04:04;101304.16;;;6.06;49.71
54920;BME280;63804;53.120;8.764;2023-01-30T00:06:30;101300.53;;;5.97;50.17
54920;BME280;63804;53.120;8.764;2023-01-30T00:08:56;101302.75;;;5.94;50.45
54920;BME280;63804;53.120;8.764;2023-01-30T00:11:22;101297.88;;;5.78;50.89
54920;BME280;63804;53.120;8.764;2023-01-30T00:13:49;101304.72;;;5.89;50.64
54920;BME280;63804;53.120;8.764;2023-01-30T00:16:16;101308.38;;;5.98;50.59
54920;BME280;63804;53.120;8.764;2023-01-30T00:18:42;101287.41;;;6.04;50.56
54920;BME280;63804;53.120;8.764;2023-01-30T00:21:10;101282.56;;;6.01;50.65
54920;BME280;63804;53.120;8.764;2023-01-30T00:23:37;101260.19;;;6.09;50.49
54920;BME280;63804;53.120;8.764;2023-01-30T00:26:04;101264.63;;;6.19;50.57
54920;BME280;63804;53.120;8.764;2023-01-30T00:28:31;101248.66;;;6.17;50.81
54920;BME280;63804;53.120;8.764;2023-01-30T00:30:57;101240.63;;;6.12;50.86
54920;BME280;63804;53.120;8.764;2023-01-30T00:33:24;101243.34;;;6.26;50.60
54920;BME280;63804;53.120;8.764;2023-01-30T00:35:52;101223.28;;;6.13;51.14
54920;BME280;63804;53.120;8.764;2023-01-30T00:38:19;101225.88;;;6.18;50.71
54920;BME280;63804;53.120;8.764;2023-01-30T00:40:46;101200.47;;;6.14;51.17
54920;BME280;63804;53.120;8.764;2023-01-30T00:43:14;101191.94;;;6.07;51.46
54920;BME280;63804;53.120;8.764;2023-01-30T00:45:59;101190.53;;;5.96;51.79
54920;BME280;63804;53.120;8.764;2023-01-30T00:48:45;101184.44;;;6.18;51.56
54920;BME280;63804;53.120;8.764;2023-01-30T00:51:10;101185.63;;;6.25;51.34
54920;BME280;63804;53.120;8.764;2023-01-30T00:53:36;101167.13;;;6.27;51.29
54920;BME280;63804;53.120;8.764;2023-01-30T00:56:02;101164.66;;;6.17;51.62
54920;BME280;63804;53.120;8.764;2023-01-30T00:58:28;101157.22;;;6.23;51.57
54920;BME280;63804;53.120;8.764;2023-01-30T01:00:54;101150.56;;;6.29;51.59
54920;BME280;63804;53.120;8.764;2023-01-30T01:03:21;101137.31;;;6.27;51.53
54920;BME280;63804;53.120;8.764;2023-01-30T01:05:47;101135.31;;;6.33;51.49
54920;BME280;63804;53.120;8.764;2023-01-30T01:08:13;101132.91;;;6.31;51.66
54920;BME280;63804;53.120;8.764;2023-01-30T01:10:39;101126.16;;;6.43;51.49
54920;BME280;63804;53.120;8.764;2023-01-30T01:13:05;101119.06;;;6.33;51.66
54920;BME280;63804;53.120;8.764;2023-01-30T01:15:31;101111.94;;;6.23;51.97
54920;BME280;63804;53.120;8.764;2023-01-30T01:17:58;101093.94;;;6.41;51.52
54920;BME280;63804;53.120;8.764;2023-01-30T01:20:24;101115.81;;;6.45;51.77
54920;BME280;63804;53.120;8.764;2023-01-30T01:22:54;101082.84;;;6.52;51.49
54920;BME280;63804;53.120;8.764;2023-01-30T01:25:22;101085.09;;;6.36;52.12
54920;BME280;63804;53.120;8.764;2023-01-30T01:27:48;101092.34;;;6.26;52.27
54920;BME280;63804;53.120;8.764;2023-01-30T01:30:14;101081.72;;;6.53;51.86
54920;BME280;63804;53.120;8.764;2023-01-30T01:32:40;101060.19;;;6.34;52.30
54920;BME280;63804;53.120;8.764;2023-01-30T01:35:07;101053.56;;;6.40;52.12
54920;BME280;63804;53.120;8.764;2023-01-30T01:37:33;101055.84;;;6.69;51.48
54920;BME280;63804;53.120;8.764;2023-01-30T01:39:59;101050.50;;;6.55;51.86
54920;BME280;63804;53.120;8.764;2023-01-30T01:42:43;101045.38;;;6.31;53.45
54920;BME280;63804;53.120;8.764;2023-01-30T01:47:40;101043.41;;;6.68;51.99
54920;BME280;63804;53.120;8.764;2023-01-30T01:52:58;101042.59;;;6.67;52.12
54920;BME280;63804;53.120;8.764;2023-01-30T01:55:26;101031.50;;;6.78;51.88
54920;BME280;63804;53.120;8.764;2023-01-30T01:58:13;101040.31;;;6.83;52.09
54920;BME280;63804;53.120;8.764;2023-01-30T02:00:40;101036.94;;;6.78;52.47
54920;BME280;63804;53.120;8.764;2023-01-30T02:03:10;101045.81;;;6.70;52.81
54920;BME280;63804;53.120;8.764;2023-01-30T02:05:41;101031.81;;;6.54;53.58
54920;BME280;63804;53.120;8.764;2023-01-30T02:08:14;101024.59;;;6.72;52.94
54920;BME280;63804;53.120;8.764;2023-01-30T02:10:58;101028.09;;;6.72;53.67
54920;BME280;63804;53.120;8.764;2023-01-30T02:13:26;101024.22;;;6.87;53.21
54920;BME280;63804;53.120;8.764;2023-01-30T02:15:56;100999.06;;;6.73;53.49
54920;BME280;63804;53.120;8.764;2023-01-30T02:18:22;101000.38;;;6.75;53.46
54920;BME280;63804;53.120;8.764;2023-01-30T02:26:31;100996.72;;;6.80;53.48
54920;BME280;63804;53.120;8.764;2023-01-30T02:29:09;100992.03;;;6.94;53.18
54920;BME280;63804;53.120;8.764;2023-01-30T02:34:40;100977.97;;;6.92;53.33
54920;BME280;63804;53.120;8.764;2023-01-30T02:42:30;100965.56;;;6.77;54.07
54920;BME280;63804;53.120;8.764;2023-01-30T02:45:30;100951.63;;;6.61;55.16
54920;BME280;63804;53.120;8.764;2023-01-30T02:48:02;100950.28;;;6.81;53.95
54920;BME280;63804;53.120;8.764;2023-01-30T02:50:39;100941.47;;;6.98;53.65
54920;BME280;63804;53.120;8.764;2023-01-30T02:53:08;100951.44;;;6.89;53.64
54920;BME280;63804;53.120;8.764;2023-01-30T02:55:34;100934.47;;;6.75;54.41
54920;BME280;63804;53.120;8.764;2023-01-30T02:58:02;100942.19;;;6.90;53.84
54920;BME280;63804;53.120;8.764;2023-01-30T03:01:43;100924.75;;;6.82;54.25
54920;BME280;63804;53.120;8.764;2023-01-30T03:09:05;100919.31;;;7.14;53.39
54920;BME280;63804;53.120;8.764;2023-01-30T03:11:45;100927.44;;;7.14;53.78
54920;BME280;63804;53.120;8.764;2023-01-30T03:14:25;100914.88;;;7.18;53.56
54920;BME280;63804;53.120;8.764;2023-01-30T03:16:55;100915.03;;;7.21;53.30
54920;BME280;63804;53.120;8.764;2023-01-30T03:19:22;100916.78;;;7.26;53.11
54920;BME280;63804;53.120;8.764;2023-01-30T03:21:48;100912.63;;;7.11;53.71
54920;BME280;63804;53.120;8.764;2023-01-30T03:24:14;100899.50;;;7.04;53.93
54920;BME280;63804;53.120;8.764;2023-01-30T03:26:57;100916.03;;;6.94;54.63
54920;BME280;63804;53.120;8.764;2023-01-30T03:29:24;100905.56;;;7.01;54.40
54920;BME280;63804;53.120;8.764;2023-01-30T03:31:49;100904.97;;;7.22;53.89
54920;BME280;63804;53.120;8.764;2023-01-30T03:34:15;100889.78;;;7.12;54.21
54920;BME280;63804;53.120;8.764;2023-01-30T03:36:41;100910.00;;;7.06;54.11
54920;BME280;63804;53.120;8.764;2023-01-30T03:39:07;100898.34;;;6.97;54.78
54920;BME280;63804;53.120;8.764;2023-01-30T03:41:33;100910.38;;;7.13;54.42
54920;BME280;63804;53.120;8.764;2023-01-30T03:43:58;100909.41;;;7.09;54.82
54920;BME280;63804;53.120;8.764;2023-01-30T03:46:24;100904.13;;;7.13;54.49
54920;BME280;63804;53.120;8.764;2023-01-30T03:48:50;100885.47;;;7.11;54.49
54920;BME280;63804;53.120;8.764;2023-01-30T03:51:16;100883.69;;;7.07;54.88
54920;BME280;63804;53.120;8.764;2023-01-30T03:53:42;100883.72;;;7.15;54.83
54920;BME280;63804;53.120;8.764;2023-01-30T03:56:07;100880.84;;;7.29;54.14
54920;BME280;63804;53.120;8.764;2023-01-30T03:58:33;100877.19;;;7.25;54.64
54920;BME280;63804;53.120;8.764;2023-01-30T04:00:59;100886.59;;;7.19;54.89
54920;BME280;63804;53.120;8.764;2023-01-30T04:03:25;100889.31;;;7.28;54.65
54920;BME280;63804;53.120;8.764;2023-01-30T04:05:51;100892.38;;;7.35;54.64
54920;BME280;63804;53.120;8.764;2023-01-30T04:08:16;100891.28;;;7.45;54.52
54920;BME280;63804;53.120;8.764;2023-01-30T04:10:42;100906.44;;;7.54;53.99
54920;BME280;63804;53.120;8.764;2023-01-30T04:13:08;100913.41;;;7.12;55.71
54920;BME280;63804;53.120;8.764;2023-01-30T04:15:34;100911.22;;;7.31;55.61
54920;BME280;63804;53.120;8.764;2023-01-30T04:17:59;100917.16;;;7.51;54.99
54920;BME280;63804;53.120;8.764;2023-01-30T04:20:25;100923.41;;;7.51;55.11
54920;BME280;63804;53.120;8.764;2023-01-30T04:22:53;100919.88;;;7.59;54.94
54920;BME280;63804;53.120;8.764;2023-01-30T04:25:19;100909.00;;;7.33;55.21
54920;BME280;63804;53.120;8.764;2023-01-30T04:27:45;100912.50;;;7.34;54.92
54920;BME280;63804;53.120;8.764;2023-01-30T04:30:11;100906.88;;;7.21;54.91
54920;BME280;63804;53.120;8.764;2023-01-30T04:32:37;100913.25;;;7.17;55.12
54920;BME280;63804;53.120;8.764;2023-01-30T04:35:03;100921.22;;;7.04;54.94
54920;BME280;63804;53.120;8.764;2023-01-30T04:37:29;100919.00;;;7.24;54.34
54920;BME280;63804;53.120;8.764;2023-01-30T04:39:54;100921.94;;;7.36;54.14
54920;BME280;63804;53.120;8.764;2023-01-30T04:42:20;100924.34;;;7.38;54.01
54920;BME280;63804;53.120;8.764;2023-01-30T04:44:46;100924.28;;;7.29;54.02
54920;BME280;63804;53.120;8.764;2023-01-30T04:47:12;100924.44;;;7.15;54.32
54920;BME280;63804;53.120;8.764;2023-01-30T04:49:37;100933.78;;;6.92;54.90
54920;BME280;63804;53.120;8.764;2023-01-30T04:52:03;100931.94;;;6.87;55.05
54920;BME280;63804;53.120;8.764;2023-01-30T04:54:29;100920.22;;;7.00;54.57
54920;BME280;63804;53.120;8.764;2023-01-30T04:56:55;100910.25;;;6.87;54.48
54920;BME280;63804;53.120;8.764;2023-01-30T04:59:22;100910.63;;;6.94;54.31
54920;BME280;63804;53.120;8.764;2023-01-30T05:01:48;100911.31;;;7.09;53.79
54920;BME280;63804;53.120;8.764;2023-01-30T05:04:14;100911.28;;;7.00;53.89
54920;BME280;63804;53.120;8.764;2023-01-30T05:06:39;100896.81;;;7.13;53.71
54920;BME280;63804;53.120;8.764;2023-01-30T05:09:05;100910.84;;;7.07;53.88
54920;BME280;63804;53.120;8.764;2023-01-30T05:11:31;100903.19;;;7.17;53.55
54920;BME280;63804;53.120;8.764;2023-01-30T05:13:58;100900.78;;;7.07;53.87
54920;BME280;63804;53.120;8.764;2023-01-30T05:16:30;100891.03;;;7.06;53.76
54920;BME280;63804;53.120;8.764;2023-01-30T05:18:56;100900.16;;;7.19;53.17
54920;BME280;63804;53.120;8.764;2023-01-30T05:21:24;100895.41;;;7.33;52.91
54920;BME280;63804;53.120;8.764;2023-01-30T05:23:53;100914.44;;;7.42;52.57
54920;BME280;63804;53.120;8.764;2023-01-30T05:26:19;100914.59;;;7.46;52.46
54920;BME280;63804;53.120;8.764;2023-01-30T05:28:50;100913.56;;;7.07;53.08
54920;BME280;63804;53.120;8.764;2023-01-30T05:31:17;100901.41;;;7.13;53.18
54920;BME280;63804;53.120;8.764;2023-01-30T05:33:46;100908.78;;;7.21;53.00
54920;BME280;63804;53.120;8.764;2023-01-30T05:36:14;100914.75;;;7.40;52.58
54920;BME280;63804;53.120;8.764;2023-01-30T05:38:42;100904.06;;;7.53;52.15
54920;BME280;63804;53.120;8.764;2023-01-30T05:41:09;100907.59;;;7.62;52.01
54920;BME280;63804;53.120;8.764;2023-01-30T05:43:36;100901.84;;;7.55;51.96
54920;BME280;63804;53.120;8.764;2023-01-30T05:46:03;100908.06;;;7.47;51.91
54920;BME280;63804;53.120;8.764;2023-01-30T05:48:31;100915.56;;;7.50;51.95
54920;BME280;63804;53.120;8.764;2023-01-30T05:50:58;100895.09;;;7.44;51.84
54920;BME280;63804;53.120;8.764;2023-01-30T05:53:27;100899.91;;;7.47;51.72
54920;BME280;63804;53.120;8.764;2023-01-30T05:55:58;100903.88;;;7.32;51.75
54920;BME280;63804;53.120;8.764;2023-01-30T05:58:25;100897.44;;;7.19;51.74
54920;BME280;63804;53.120;8.764;2023-01-30T06:00:51;100906.50;;;7.05;52.03
54920;BME280;63804;53.120;8.764;2023-01-30T06:03:18;100901.63;;;7.25;51.31
54920;BME280;63804;53.120;8.764;2023-01-30T06:05:44;100914.97;;;7.13;51.24
54920;BME280;63804;53.120;8.764;2023-01-30T06:08:10;100921.25;;;7.13;51.38
54920;BME280;63804;53.120;8.764;2023-01-30T06:10:35;100924.09;;;7.08;51.41
54920;BME280;63804;53.120;8.764;2023-01-30T06:13:02;100926.97;;;7.12;51.46
54920;BME280;63804;53.120;8.764;2023-01-30T06:15:27;100928.75;;;7.16;51.28
54920;BME280;63804;53.120;8.764;2023-01-30T06:17:53;100931.81;;;7.32;50.77
54920;BME280;63804;53.120;8.764;2023-01-30T06:20:19;100914.97;;;7.13;51.15
54920;BME280;63804;53.120;8.764;2023-01-30T06:22:47;100912.63;;;7.20;50.99
54920;BME280;63804;53.120;8.764;2023-01-30T06:25:13;100914.19;;;7.03;51.39
54920;BME280;63804;53.120;8.764;2023-01-30T06:27:39;100914.41;;;7.25;50.79
54920;BME280;63804;53.120;8.764;2023-01-30T06:30:05;100906.75;;;7.27;50.70
54920;BME280;63804;53.120;8.764;2023-01-30T06:32:31;100901.94;;;7.23;50.39
54920;BME280;63804;53.120;8.764;2023-01-30T06:34:57;100915.50;;;7.23;50.50
54920;BME280;63804;53.120;8.764;2023-01-30T06:37:23;100905.50;;;6.93;50.99
54920;BME280;63804;53.120;8.764;2023-01-30T06:39:48;100912.72;;;6.97;50.81
54920;BME280;63804;53.120;8.764;2023-01-30T06:42:14;100911.31;;;7.09;50.24
54920;BME280;63804;53.120;8.764;2023-01-30T06:44:40;100915.41;;;6.97;50.38
54920;BME280;63804;53.120;8.764;2023-01-30T06:47:06;100918.53;;;7.13;50.09
54920;BME280;63804;53.120;8.764;2023-01-30T06:49:31;100926.22;;;7.29;49.49
54920;BME280;63804;53.120;8.764;2023-01-30T06:51:57;100921.41;;;7.17;49.87
54920;BME280;63804;53.120;8.764;2023-01-30T06:54:23;100923.63;;;7.15;49.87
54920;BME280;63804;53.120;8.764;2023-01-30T06:56:49;100927.13;;;7.07;49.77
54920;BME280;63804;53.120;8.764;2023-01-30T06:59:14;100931.94;;;7.10;49.84
54920;BME280;63804;53.120;8.764;2023-01-30T07:01:40;100927.56;;;6.91;49.91
54920;BME280;63804;53.120;8.764;2023-01-30T07:04:06;100932.81;;;6.65;50.29
54920;BME280;63804;53.120;8.764;2023-01-30T07:06:32;100929.22;;;6.78;50.12
54920;BME280;63804;53.120;8.764;2023-01-30T07:08:58;100936.41;;;6.83;49.56
54920;BME280;63804;53.120;8.764;2023-01-30T07:11:27;100947.63;;;6.90;49.29
54920;BME280;63804;53.120;8.764;2023-01-30T07:13:52;100941.84;;;6.83;49.49
54920;BME280;63804;53.120;8.764;2023-01-30T07:16:18;100944.78;;;6.95;49.09
54920;BME280;63804;53.120;8.764;2023-01-30T07:18:44;100947.38;;;7.00;48.94
54920;BME280;63804;53.120;8.764;2023-01-30T07:21:10;100931.94;;;6.87;49.24
54920;BME280;63804;53.120;8.764;2023-01-30T07:23:36;100928.22;;;7.05;48.92
54920;BME280;63804;53.120;8.764;2023-01-30T07:26:03;100934.56;;;6.92;48.87
54920;BME280;63804;53.120;8.764;2023-01-30T07:28:29;100942.09;;;7.04;48.52
54920;BME280;63804;53.120;8.764;2023-01-30T07:30:58;100942.25;;;6.99;48.67
54920;BME280;63804;53.120;8.764;2023-01-30T07:33:24;100946.63;;;7.17;48.40
54920;BME280;63804;53.120;8.764;2023-01-30T07:35:50;100937.31;;;7.01;48.44
54920;BME280;63804;53.120;8.764;2023-01-30T07:38:16;100931.84;;;6.92;48.47
54920;BME280;63804;53.120;8.764;2023-01-30T07:40:41;100934.13;;;7.08;48.18
54920;BME280;63804;53.120;8.764;2023-01-30T07:43:11;100936.44;;;7.23;47.87
54920;BME280;63804;53.120;8.764;2023-01-30T07:45:40;100938.13;;;7.01;48.17
54920;BME280;63804;53.120;8.764;2023-01-30T07:48:08;100933.56;;;6.88;48.48
54920;BME280;63804;53.120;8.764;2023-01-30T07:50:34;100944.38;;;7.19;47.86
54920;BME280;63804;53.120;8.764;2023-01-30T07:53:04;100943.81;;;7.40;47.43
54920;BME280;63804;53.120;8.764;2023-01-30T07:55:31;100938.03;;;7.33;47.75
54920;BME280;63804;53.120;8.764;2023-01-30T07:57:56;100943.81;;;7.31;47.69
54920;BME280;63804;53.120;8.764;2023-01-30T08:00:22;100931.00;;;7.23;47.84
54920;BME280;63804;53.120;8.764;2023-01-30T08:02:48;100943.94;;;7.26;47.86
54920;BME280;63804;53.120;8.764;2023-01-30T08:05:14;100946.16;;;7.24;47.81
54920;BME280;63804;53.120;8.764;2023-01-30T08:07:40;100965.25;;;7.41;47.61
54920;BME280;63804;53.120;8.764;2023-01-30T08:10:06;100961.03;;;7.27;48.04
54920;BME280;63804;53.120;8.764;2023-01-30T08:12:32;100965.88;;;7.38;47.94
54920;BME280;63804;53.120;8.764;2023-01-30T08:14:58;100963.13;;;7.30;48.33
54920;BME280;63804;53.120;8.764;2023-01-30T08:17:24;100961.34;;;7.25;48.28
54920;BME280;63804;53.120;8.764;2023-01-30T08:19:50;100956.13;;;7.46;47.93
54920;BME280;63804;53.120;8.764;2023-01-30T08:22:16;100957.88;;;7.33;48.03
54920;BME280;63804;53.120;8.764;2023-01-30T08:24:42;100961.84;;;7.36;47.97
54920;BME280;63804;53.120;8.764;2023-01-30T08:27:08;100951.31;;;7.34;47.99
54920;BME280;63804;53.120;8.764;2023-01-30T08:29:34;100961.91;;;7.45;47.56
54920;BME280;63804;53.120;8.764;2023-01-30T08:32:00;100937.94;;;7.47;47.51
54920;BME280;63804;53.120;8.764;2023-01-30T08:34:26;100948.41;;;7.22;48.02
54920;BME280;63804;53.120;8.764;2023-01-30T08:36:52;100955.84;;;7.08;48.33
54920;BME280;63804;53.120;8.764;2023-01-30T08:39:18;100955.16;;;7.33;47.87
54920;BME280;63804;53.120;8.764;2023-01-30T08:41:44;100952.91;;;7.35;48.08
54920;BME280;63804;53.120;8.764;2023-01-30T08:44:11;100937.88;;;7.29;48.13
54920;BME280;63804;53.120;8.764;2023-01-30T08:46:37;100940.44;;;7.34;48.41
54920;BME280;63804;53.120;8.764;2023-01-30T08:49:04;100954.06;;;7.43;48.38
54920;BME280;63804;53.120;8.764;2023-01-30T08:51:30;100960.41;;;7.30;48.40
54920;BME280;63804;53.120;8.764;2023-01-30T08:53:56;100957.56;;;7.35;48.27
54920;BME280;63804;53.120;8.764;2023-01-30T08:56:22;100956.94;;;7.38;48.17
54920;BME280;63804;53.120;8.764;2023-01-30T08:58:48;100955.31;;;7.28;48.32
54920;BME280;63804;53.120;8.764;2023-01-30T09:01:14;100945.53;;;7.27;48.72
54920;BME280;63804;53.120;8.764;2023-01-30T09:03:41;100949.56;;;7.38;48.66
54920;BME280;63804;53.120;8.764;2023-01-30T09:06:07;100935.66;;;7.31;48.69
54920;BME280;63804;53.120;8.764;2023-01-30T09:08:33;100951.03;;;7.45;48.05
54920;BME280;63804;53.120;8.764;2023-01-30T09:11:01;100951.44;;;7.20;48.68
54920;BME280;63804;53.120;8.764;2023-01-30T09:13:27;100940.84;;;7.10;49.04
54920;BME280;63804;53.120;8.764;2023-01-30T09:15:53;100940.16;;;7.45;47.88
54920;BME280;63804;53.120;8.764;2023-01-30T09:18:19;100952.31;;;7.56;47.85
54920;BME280;63804;53.120;8.764;2023-01-30T09:20:45;100944.53;;;7.81;47.35
54920;BME280;63804;53.120;8.764;2023-01-30T09:23:10;100942.13;;;7.70;47.46
54920;BME280;63804;53.120;8.764;2023-01-30T09:25:36;100933.97;;;7.88;46.79
54920;BME280;63804;53.120;8.764;2023-01-30T09:28:02;100945.16;;;7.60;47.46
54920;BME280;63804;53.120;8.764;2023-01-30T09:30:28;100953.94;;;7.74;46.99
54920;BME280;63804;53.120;8.764;2023-01-30T09:32:54;100954.22;;;7.47;47.57
54920;BME280;63804;53.120;8.764;2023-01-30T09:35:20;100947.72;;;7.65;47.33
54920;BME280;63804;53.120;8.764;2023-01-30T09:37:51;100960.97;;;7.75;47.05
54920;BME280;63804;53.120;8.764;2023-01-30T09:40:29;100958.41;;;7.62;47.39
54920;BME280;63804;53.120;8.764;2023-01-30T09:43:21;100956.19;;;7.64;47.34
54920;BME280;63804;53.120;8.764;2023-01-30T09:48:28;100931.41;;;7.74;46.81
54920;BME280;63804;53.120;8.764;2023-01-30T09:53:57;100952.47;;;7.51;46.83
54920;BME280;63804;53.120;8.764;2023-01-30T09:56:24;100960.97;;;7.58;46.99
54920;BME280;63804;53.120;8.764;2023-01-30T09:58:54;100971.84;;;7.75;46.84
54920;BME280;63804;53.120;8.764;2023-01-30T10:01:39;100958.34;;;7.35;47.23
54920;BME280;63804;53.120;8.764;2023-01-30T10:06:50;100975.03;;;7.69;46.61
54920;BME280;63804;53.120;8.764;2023-01-30T10:09:31;100958.25;;;7.58;47.16
54920;BME280;63804;53.120;8.764;2023-01-30T10:26:29;100944.03;;;7.96;46.49
54920;BME280;63804;53.120;8.764;2023-01-30T10:29:03;100932.69;;;8.03;46.24
54920;BME280;63804;53.120;8.764;2023-01-30T10:34:11;100926.13;;;7.77;47.15
54920;BME280;63804;53.120;8.764;2023-01-30T10:36:45;100923.44;;;7.95;47.08
54920;BME280;63804;53.120;8.764;2023-01-30T10:39:57;100918.31;;;7.67;47.81
54920;BME280;63804;53.120;8.764;2023-01-30T10:42:33;100918.75;;;7.52;48.13
54920;BME280;63804;53.120;8.764;2023-01-30T10:45:11;100914.13;;;7.52;48.29
54920;BME280;63804;53.120;8.764;2023-01-30T10:47:54;100908.72;;;7.96;47.23
54920;BME280;63804;53.120;8.764;2023-01-30T10:50:44;100907.09;;;8.12;46.87
54920;BME280;63804;53.120;8.764;2023-01-30T10:56:24;100909.47;;;7.27;49.14
54920;BME280;63804;53.120;8.764;2023-01-30T10:59:27;100916.63;;;7.22;49.77
54920;BME280;63804;53.120;8.764;2023-01-30T11:02:19;100899.91;;;7.64;49.25
54920;BME280;63804;53.120;8.764;2023-01-30T11:04:55;100920.81;;;7.46;49.32
54920;BME280;63804;53.120;8.764;2023-01-30T11:07:22;100927.88;;;6.98;50.26
54920;BME280;63804;53.120;8.764;2023-01-30T11:09:48;100923.81;;;7.27;50.22
54920;BME280;63804;53.120;8.764;2023-01-30T11:12:14;100931.63;;;7.20;50.15
54920;BME280;63804;53.120;8.764;2023-01-30T11:14:59;100947.56;;;7.13;51.08
54920;BME280;63804;53.120;8.764;2023-01-30T11:17:35;100943.31;;;7.29;50.60
54920;BME280;63804;53.120;8.764;2023-01-30T11:20:16;100944.75;;;7.27;50.51
54920;BME280;63804;53.120;8.764;2023-01-30T11:22:48;100933.75;;;7.40;50.17
54920;BME280;63804;53.120;8.764;2023-01-30T11:25:21;100932.81;;;7.54;49.78
54920;BME280;63804;53.120;8.764;2023-01-30T11:28:01;100930.78;;;7.68;49.53
54920;BME280;63804;53.120;8.764;2023-01-30T11:30:33;100922.00;;;7.89;49.19
54920;BME280;63804;53.120;8.764;2023-01-30T11:33:15;100927.56;;;8.01;48.67
54920;BME280;63804;53.120;8.764;2023-01-30T11:35:52;100929.03;;;7.90;49.01
54920;BME280;63804;53.120;8.764;2023-01-30T11:38:25;100945.63;;;8.14;47.92
54920;BME280;63804;53.120;8.764;2023-01-30T11:43:37;100905.78;;;8.27;47.57
54920;BME280;63804;53.120;8.764;2023-01-30T11:46:08;100916.88;;;8.05;47.70
54920;BME280;63804;53.120;8.764;2023-01-30T11:48:45;100905.66;;;8.24;47.12
54920;BME280;63804;53.120;8.764;2023-01-30T11:51:13;100904.38;;;8.39;46.83
54920;BME280;63804;53.120;8.764;2023-01-30T11:53:43;100928.66;;;8.52;46.12
54920;BME280;63804;53.120;8.764;2023-01-30T11:57:01;100917.19;;;8.38;46.30
54920;BME280;63804;53.120;8.764;2023-01-30T11:59:06;100916.69;;;8.36;46.52
54920;BME280;63804;53.120;8.764;2023-01-30T12:01:34;100943.09;;;8.27;46.36
54920;BME280;63804;53.120;8.764;2023-01-30T12:04:05;100959.72;;;8.34;46.46
54920;BME280;63804;53.120;8.764;2023-01-30T12:06:38;100946.28;;;7.94;46.50
54920;BME280;63804;53.120;8.764;2023-01-30T12:09:04;100943.56;;;8.29;46.13
54920;BME280;63804;53.120;8.764;2023-01-30T12:11:40;100960.03;;;8.15;46.20
54920;BME280;63804;53.120;8.764;2023-01-30T12:17:38;100925.66;;;8.19;45.75
54920;BME280;63804;53.120;8.764;2023-01-30T12:22:37;100922.75;;;8.33;45.92
54920;BME280;63804;53.120;8.764;2023-01-30T12:25:21;100918.75;;;8.13;45.37
54920;BME280;63804;53.120;8.764;2023-01-30T12:30:53;100920.31;;;8.58;45.27
54920;BME280;63804;53.120;8.764;2023-01-30T12:33:22;100920.38;;;8.40;45.66
54920;BME280;63804;53.120;8.764;2023-01-30T12:52:36;100956.66;;;8.62;44.97
54920;BME280;63804;53.120;8.764;2023-01-30T12:57:59;100974.59;;;8.54;45.07
54920;BME280;63804;53.120;8.764;2023-01-30T13:09:14;100973.97;;;8.48;45.52
54920;BME280;63804;53.120;8.764;2023-01-30T13:17:37;100996.81;;;8.65;45.17
54920;BME280;63804;53.120;8.764;2023-01-30T13:20:02;101013.47;;;8.55;45.70
54920;BME280;63804;53.120;8.764;2023-01-30T13:25:20;101016.84;;;8.60;45.33
54920;BME280;63804;53.120;8.764;2023-01-30T13:27:54;101021.47;;;8.42;45.31
54920;BME280;63804;53.120;8.764;2023-01-30T13:30:22;101038.06;;;8.14;46.09
54920;BME280;63804;53.120;8.764;2023-01-30T13:32:53;101033.44;;;8.06;45.84
54920;BME280;63804;53.120;8.764;2023-01-30T13:35:34;101052.19;;;8.16;45.26
54920;BME280;63804;53.120;8.764;2023-01-30T13:38:03;101058.03;;;8.01;45.60
54920;BME280;63804;53.120;8.764;2023-01-30T13:40:37;101052.34;;;8.11;45.39
54920;BME280;63804;53.120;8.764;2023-01-30T13:45:38;101061.34;;;8.47;44.61
54920;BME280;63804;53.120;8.764;2023-01-30T13:51:31;101079.06;;;8.27;44.24
54920;BME280;63804;53.120;8.764;2023-01-30T14:09:33;101116.78;;;8.20;44.47
54920;BME280;63804;53.120;8.764;2023-01-30T14:12:05;101120.19;;;8.43;44.08
54920;BME280;63804;53.120;8.764;2023-01-30T14:14:33;101122.34;;;8.06;44.55
54920;BME280;63804;53.120;8.764;2023-01-30T14:17:15;101132.44;;;7.65;45.25
54920;BME280;63804;53.120;8.764;2023-01-30T14:19:45;101145.00;;;7.92;45.44
54920;BME280;63804;53.120;8.764;2023-01-30T14:38:20;101220.22;;;8.06;45.40
54920;BME280;63804;53.120;8.764;2023-01-30T14:54:05;101250.25;;;8.01;45.75
54920;BME280;63804;53.120;8.764;2023-01-30T14:59:19;101271.84;;;7.97;46.23
54920;BME280;63804;53.120;8.764;2023-01-30T15:06:59;101279.06;;;8.33;45.31
54920;BME280;63804;53.120;8.764;2023-01-30T15:09:27;101307.13;;;8.51;45.34
54920;BME280;63804;53.120;8.764;2023-01-30T15:17:19;101362.63;;;7.51;48.53
54920;BME280;63804;53.120;8.764;2023-01-30T15:25:31;101379.50;;;7.25;49.62
54920;BME280;63804;53.120;8.764;2023-01-30T15:28:27;101383.72;;;7.31;49.44
54920;BME280;63804;53.120;8.764;2023-01-30T15:31:01;101375.59;;;7.03;49.94
54920;BME280;63804;53.120;8.764;2023-01-30T15:33:28;101370.75;;;7.28;49.14
54920;BME280;63804;53.120;8.764;2023-01-30T15:35:54;101378.06;;;7.41;49.03
54920;BME280;63804;53.120;8.764;2023-01-30T15:40:46;101395.56;;;7.35;49.21
54920;BME280;63804;53.120;8.764;2023-01-30T15:43:36;101404.31;;;7.32;49.15
54920;BME280;63804;53.120;8.764;2023-01-30T15:49:08;101417.41;;;7.30;49.01
54920;BME280;63804;53.120;8.764;2023-01-30T15:51:41;101406.03;;;7.28;48.82
54920;BME280;63804;53.120;8.764;2023-01-30T15:54:13;101412.28;;;7.65;48.03
54920;BME280;63804;53.120;8.764;2023-01-30T15:56:43;101424.34;;;7.22;48.33
54920;BME280;63804;53.120;8.764;2023-01-30T16:02:15;101425.81;;;7.42;47.47
54920;BME280;63804;53.120;8.764;2023-01-30T16:04:43;101433.03;;;7.61;47.39
54920;BME280;63804;53.120;8.764;2023-01-30T16:07:25;101449.53;;;7.65;47.22
54920;BME280;63804;53.120;8.764;2023-01-30T16:09:55;101453.34;;;7.64;47.08
54920;BME280;63804;53.120;8.764;2023-01-30T16:12:23;101462.38;;;7.87;46.58